Terminal Aerodrome Forecast
Issued by NWS Paducah, KY

Home | Current Version | Previous Version | Text Only | Print | Product List | Glossary On
Versions: 1 2 3 4 5 6 7 8 9 10 11 12 13 14 15 16 17 18
353
FTUS43 KPAH 212333
TAFPAH
TAF
KPAH 212333Z 2200/2224 18005KT P6SM SCT040 BKN150
     FM220600 08003KT 6SM BR SCT025 OVC050
     FM220800 05004KT 4SM BR VCSH OVC010
     FM221100 07008KT 3SM SHRA BR OVC005
     FM221400 05009KT 2SM SHRA BR OVC003=

USA.gov is the U.S. government's official web portal to all federal, state and local government web resources and services.